Aviation Digital Data Service (ADDS)

Output produced by METARs form (1738 UTC 24 June 2019)
found at http://www.aviationweather.gov/metar/data/
 
Forecast for: PTYA (YAP ISLAND , FM)
Text: PTYA 241727Z 2418/2518 09008KT P6SM VCSH SCT016 BKN120
Forecast period: 1800 UTC 24 June 2019 to 1800 UTC 25 June 2019
Forecast type: FROM: standard forecast or significant change
Winds: from the E (90 degrees) at 9 MPH (8 knots; 4.1 m/s)
Visibility: 6 or more miles 10+ km)
Ceiling: 12000 feet AGL
Clouds: scattered clouds at 1600 feet AGL
broken clouds at 12000 feet AGL
Weather: VCSH  (showers in vicinity)